Latest Weather Observations for Camden

IDN60801

Issued at 12:03 pm EDT Sunday 18 February 2018 (issued every 30 minutes, with the page automatically refreshed every 10 minutes)

About weather observations | Map of weather stations | Latest weather observations for NSW | Other Formats
Station Details ID: 068192 Name: CAMDEN AIRPORT AWS Lat: -34.04 Lon: 150.69 Height: 73.9 m
Data from the previous 72 hours. | See also: Recent months at Camden
Date/Time
EDT
Temp
°C
App
Temp
°C
Dew
Point
°C
Rel
Hum
%
Delta-T
°C
Wind Press
QNH
hPa
Press
MSL
hPa
Rain since
9am
mm
Dir  Spd
km/h
Gust
km/h
Spd
kts
Gust
kts
18/12:00pm 29.6 30.7 18.1 50 7.4 NE 9 24 5 13 1011.8 1011.5 0.0
18/11:30am 28.0 28.1 17.5 52 6.6 NNE 13 20 7 11 1012.2 1011.9 0.0
18/11:00am 27.0 27.1 17.5 56 6.0 NE 13 20 7 11 1012.8 1012.5 0.0
18/10:30am 26.5 27.1 17.8 58 5.5 NE 11 20 6 11 1013.0 1012.7 0.0
18/10:00am 25.1 25.8 17.1 61 5.0 N 9 15 5 8 1013.3 1013.0 0.0
18/09:30am 25.0 26.0 17.7 64 4.6 E 9 13 5 7 1013.5 1013.2 0.0
18/09:00am 23.1 25.7 17.6 71 3.4 CALM 0 0 0 0 1013.4 1013.1 0.0
18/08:30am 21.7 23.9 16.6 73 3.1 CALM 0 0 0 0 1013.3 1013.0 0.0
18/08:00am 19.4 21.7 16.8 85 1.6 CALM 0 0 0 0 1013.1 1012.8 0.0
18/07:30am 18.0 20.5 17.2 95 0.5 CALM 0 0 0 0 1013.0 1012.7 0.0
18/07:00am 17.3 19.4 16.3 94 0.6 CALM 0 0 0 0 1012.8 1012.5 0.0
18/06:30am 17.3 19.4 16.2 93 0.7 CALM 0 0 0 0 1012.5 1012.2 0.0
18/06:00am 17.4 19.4 15.9 91 0.9 CALM 0 0 0 0 1012.3 1012.0 0.0
18/05:30am 17.8 19.8 16.0 89 1.1 CALM 0 0 0 0 1012.1 1011.8 0.0
18/05:00am 18.2 20.4 16.4 89 1.1 CALM 0 0 0 0 1012.1 1011.8 0.0
18/04:30am 18.0 19.9 15.8 87 1.3 CALM 0 0 0 0 1012.1 1011.8 0.0
18/04:00am 18.5 20.7 16.5 88 1.2 CALM 0 0 0 0 1011.9 1011.6 0.0
18/03:30am 18.7 20.9 16.5 87 1.3 CALM 0 0 0 0 1012.1 1011.8 0.0
18/03:00am 19.0 20.9 16.6 86 1.4 S 2 7 1 4 1012.7 1012.4 0.0
18/02:30am 18.9 21.1 16.5 86 1.4 CALM 0 0 0 0 1012.5 1012.2 0.0
18/02:00am 19.1 21.1 16.1 83 1.8 CALM 0 0 0 0 1012.7 1012.4 0.0
18/01:30am 19.5 21.8 16.7 84 1.7 CALM 0 0 0 0 1013.2 1012.9 0.0
18/01:00am 19.9 22.2 16.7 82 1.9 CALM 0 0 0 0 1013.4 1013.1 0.0
18/12:30am 20.4 22.7 16.8 80 2.2 CALM 0 0 0 0 1013.6 1013.3 0.0
18/12:00am 21.0 23.2 16.4 75 2.8 CALM 0 0 0 0 1013.7 1013.4 0.0
 
Date/Time
EDT
Temp
°C
App
Temp
°C
Dew
Point
°C
Rel
Hum
%
Delta-T
°C
Wind Press
QNH
hPa
Press
MSL
hPa
Rain since
9am
mm
Dir  Spd
km/h
Gust
km/h
Spd
kts
Gust
kts
17/11:30pm 20.9 22.9 15.9 73 3.0 CALM 0 0 0 0 1013.8 1013.5 0.0
17/11:00pm 21.7 23.9 16.4 72 3.2 CALM 0 0 0 0 1013.7 1013.4 0.0
17/10:30pm 22.4 24.2 16.4 69 3.7 NE 2 7 1 4 1013.8 1013.5 0.0
17/10:00pm 22.8 22.6 16.6 68 3.8 NE 13 17 7 9 1013.6 1013.3 0.0
17/09:30pm 23.0 23.0 16.3 66 4.1 ENE 11 17 6 9 1013.3 1013.0 0.0
17/09:00pm 23.3 23.5 16.8 67 4.0 ENE 11 17 6 9 1013.1 1012.8 0.0
17/08:30pm 23.5 23.3 16.8 66 4.1 ENE 13 19 7 10 1012.6 1012.3 0.0
17/08:00pm 23.8 22.7 16.3 63 4.6 ENE 17 26 9 14 1012.3 1012.0 0.0
17/07:30pm 24.4 22.9 16.4 61 4.9 ENE 19 30 10 16 1011.8 1011.5 0.0
17/07:00pm 25.2 23.6 16.4 58 5.4 ENE 20 32 11 17 1011.4 1011.1 0.0
17/06:30pm 26.0 23.4 16.0 54 6.1 ENE 24 35 13 19 1011.0 1010.7 0.0
17/06:00pm 27.0 24.4 16.0 51 6.8 ENE 24 35 13 19 1010.7 1010.4 0.0
17/05:30pm 27.7 24.8 16.0 49 7.2 ENE 26 41 14 22 1010.7 1010.4 0.0
17/05:00pm 28.4 25.3 15.7 46 7.8 ENE 26 41 14 22 1010.4 1010.1 0.0
17/04:30pm 28.6 25.5 15.5 45 8.1 ENE 26 39 14 21 1010.4 1010.1 0.0
17/04:00pm 28.6 24.8 14.8 43 8.4 ENE 28 43 15 23 1010.4 1010.1 0.0
17/03:30pm 29.2 25.7 14.6 41 8.9 ENE 26 39 14 21 1010.7 1010.4 0.0
17/03:00pm 31.3 28.5 14.4 35 10.3 ENE 22 35 12 19 1011.0 1010.7 0.0
17/02:30pm 30.4 28.3 12.3 33 10.7 NNE 15 26 8 14 1011.5 1011.2 0.0
17/02:00pm 29.6 27.0 12.1 34 10.2 NE 17 32 9 17 1011.9 1011.6 0.0
17/01:30pm 30.5 27.4 13.3 35 10.3 NNE 22 32 12 17 1012.4 1012.1 0.0
17/01:00pm 29.4 27.2 13.2 37 9.6 NNE 17 28 9 15 1012.8 1012.5 0.0
17/12:30pm 28.2 24.8 12.5 37 9.2 NNE 22 39 12 21 1013.4 1013.1 0.0
17/12:00pm 28.0 24.4 12.0 37 9.3 N 22 33 12 18 1013.9 1013.6 0.0
17/11:30am 27.3 23.7 11.7 37 9.0 NNE 22 32 12 17 1014.4 1014.1 0.0
17/11:00am 26.3 23.7 13.1 44 7.7 N 19 24 10 13 1014.9 1014.6 0.0
17/10:30am 26.2 23.6 13.3 45 7.6 N 19 30 10 16 1015.1 1014.8 0.0
17/10:00am 23.5 23.5 15.3 60 4.9 NW 9 15 5 8 1015.5 1015.1 0.0
17/09:30am 22.7 22.5 15.8 65 4.2 NW 11 15 6 8 1015.7 1015.3 0.0
17/09:00am 22.7 23.2 15.5 64 4.3 NNW 7 13 4 7 1015.9 1015.5 0.0
17/08:30am 22.0 22.9 15.1 65 4.1 SW 4 7 2 4 1015.9 1015.5 0.0
17/08:00am 21.0 22.7 15.1 69 3.5 CALM 0 0 0 0 1015.7 1015.3 0.0
17/07:30am 19.9 21.6 15.3 75 2.7 CALM 0 0 0 0 1015.5 1015.1 0.0
17/07:00am 19.1 20.9 15.4 79 2.2 CALM 0 0 0 0 1015.3 1015.0 0.0
17/06:30am 19.2 20.2 15.3 78 2.3 S 4 7 2 4 1014.9 1014.6 0.0
17/06:00am 19.0 20.8 15.5 80 2.1 CALM 0 0 0 0 1014.7 1014.4 0.0
17/05:30am 19.2 20.9 15.3 78 2.3 CALM 0 0 0 0 1014.6 1014.3 0.0
17/05:00am 19.5 21.3 15.6 78 2.3 CALM 0 0 0 0 1014.4 1014.1 0.0
17/04:30am 19.5 21.3 15.4 77 2.4 CALM 0 0 0 0 1014.3 1014.0 0.0
17/04:00am 19.6 21.2 15.0 75 2.7 CALM 0 0 0 0 1014.4 1014.1 0.0
17/03:30am 19.9 21.6 15.3 75 2.7 CALM 0 0 0 0 1014.6 1014.3 0.0
17/03:00am 20.1 21.9 15.5 75 2.7 CALM 0 0 0 0 1014.8 1014.5 0.0
17/02:30am 20.2 21.8 15.0 72 3.1 CALM 0 0 0 0 1015.0 1014.7 0.0
17/02:00am 20.2 21.8 15.0 72 3.1 CALM 0 0 0 0 1015.2 1014.9 0.0
17/01:30am 20.1 21.8 15.3 74 2.8 CALM 0 0 0 0 1015.6 1015.2 0.0
17/01:00am 19.9 21.7 15.5 76 2.6 CALM 0 0 0 0 1015.8 1015.4 0.0
17/12:30am 20.5 22.1 14.8 70 3.4 CALM 0 0 0 0 1016.0 1015.6 0.0
17/12:00am 20.4 21.7 15.2 72 3.1 SW 2 9 1 5 1015.8 1015.4 0.0
 
Date/Time
EDT
Temp
°C
App
Temp
°C
Dew
Point
°C
Rel
Hum
%
Delta-T
°C
Wind Press
QNH
hPa
Press
MSL
hPa
Rain since
9am
mm
Dir  Spd
km/h
Gust
km/h
Spd
kts
Gust
kts
16/11:30pm 19.8 21.4 14.8 73 2.9 CALM 0 0 0 0 1015.8 1015.4 0.0
16/11:00pm 19.5 21.0 14.7 74 2.8 CALM 0 0 0 0 1015.6 1015.2 0.0
16/10:30pm 20.4 21.8 14.5 69 3.5 CALM 0 0 0 0 1015.6 1015.2 0.0
16/10:00pm 20.4 21.5 14.5 69 3.4 SSE 2 6 1 3 1015.3 1015.0 0.0
16/09:30pm 20.4 20.5 14.5 69 3.5 SSE 7 9 4 5 1014.9 1014.6 0.0
16/09:00pm 20.9 20.6 14.3 66 3.9 SSE 9 15 5 8 1014.5 1014.2 0.0
16/08:30pm 21.0 20.2 13.9 64 4.1 SE 11 17 6 9 1014.0 1013.7 0.0
16/08:00pm 21.7 20.5 13.9 61 4.5 SE 13 19 7 10 1013.5 1013.2 0.0
16/07:30pm 22.3 21.2 14.2 60 4.8 SE 13 20 7 11 1012.9 1012.6 0.0
16/07:00pm 23.3 21.4 14.3 57 5.3 SE 17 28 9 15 1012.2 1011.9 0.0
16/06:30pm 24.0 21.8 14.4 55 5.7 ESE 19 28 10 15 1011.3 1011.0 0.0
16/06:00pm 25.3 23.0 14.7 51 6.4 SE 20 26 11 14 1010.8 1010.5 0.0
16/05:30pm 25.8 23.4 14.3 49 6.9 ESE 20 33 11 18 1010.2 1009.9 0.0
16/05:00pm 27.3 24.4 14.0 44 8.0 ESE 22 35 12 19 1009.4 1009.1 0.0
16/04:30pm 28.9 25.4 12.3 36 9.7 E 22 41 12 22 1008.8 1008.5 0.0
16/04:00pm 33.0 29.4 0.9 13 16.0 ESE 9 17 5 9 1008.6 1008.3 0.0
16/03:30pm 32.0 28.5 1.2 14 15.3 NNE 9 17 5 9 1009.0 1008.7 0.0
16/03:00pm 31.2 28.1 1.5 15 14.7 NNW 7 13 4 7 1009.5 1009.2 0.0
16/02:30pm 30.1 26.6 1.5 16 14.1 SW 9 19 5 10 1009.8 1009.5 0.0
16/02:00pm 30.1 26.8 2.4 17 13.9 SW 9 17 5 9 1010.1 1009.8 0.0
16/01:30pm 28.2 25.3 1.7 18 12.9 W 6 19 3 10 1010.6 1010.3 0.0
16/01:00pm 27.4 23.1 1.0 18 12.6 WSW 13 19 7 10 1010.6 1010.3 0.0
16/12:30pm 27.6 22.9 1.2 18 12.7 SW 15 20 8 11 1011.0 1010.7 0.0
16/12:00pm 28.2 23.3 1.7 18 12.9 SW 17 24 9 13 1011.2 1010.9 0.0
16/11:30am 27.1 22.9 1.5 19 12.3 SSW 13 19 7 10 1011.4 1011.1 0.0
16/11:00am 26.7 22.8 1.2 19 12.2 SW 11 15 6 8 1011.5 1011.2 0.0
16/10:30am 26.6 22.0 1.8 20 12.0 W 15 24 8 13 1011.6 1011.3 0.0
16/10:00am 25.7 22.5 5.3 27 10.4 WSW 11 15 6 8 1011.6 1011.3 0.0
16/09:30am 23.9 23.1 8.3 37 8.3 S 2 9 1 5 1011.5 1011.2 0.0
16/09:00am 22.4 22.1 12.6 54 5.6 E 6 9 3 5 1011.0 1010.7 0.0
16/08:30am 20.4 21.1 15.6 74 2.9 E 6 9 3 5 1010.7 1010.4 0.0
16/08:00am 17.6 19.6 15.9 90 1.0 CALM 0 0 0 0 1010.4 1010.1 0.0
16/07:30am 16.0 17.9 15.8 99 0.1 CALM 0 7 0 4 1010.1 1009.8 0.0
16/07:00am 15.0 16.6 14.8 99 0.1 CALM 0 0 0 0 1009.8 1009.5 0.0
16/06:30am 14.6 15.6 14.4 99 0.1 N 2 7 1 4 1009.8 1009.5 0.0
16/06:00am 14.9 15.7 14.7 99 0.1 N 4 7 2 4 1009.3 1009.0 0.0
16/05:43am 15.1 15.9 14.9 99 0.1 N 4 7 2 4 1009.2 1008.9 0.0
16/05:30am 15.0 16.2 14.8 99 0.1 N 2 9 1 5 1009.0 1008.7 0.0
16/05:01am 15.2 16.8 15.0 99 0.1 CALM 0 6 0 3 1008.9 1008.6 0.0
16/05:00am 15.0 16.6 14.8 99 0.1 CALM 0 6 0 3 1008.9 1008.6 0.0
16/04:30am 14.8 16.2 14.5 98 0.2 CALM 0 0 0 0 1008.7 1008.4 0.0
16/04:00am 15.3 16.5 14.8 97 0.3 WNW 2 7 1 4 1008.6 1008.3 0.0
16/03:30am 15.6 17.2 14.8 95 0.5 CALM 0 0 0 0 1008.6 1008.3 0.0
16/03:00am 16.7 18.8 16.2 97 0.3 CALM 0 2 0 1 1008.8 1008.5 0.0
16/02:59am 16.7 18.7 16.1 96 0.4 CALM 0 6 0 3 1008.8 1008.5 0.0
16/02:30am 17.0 17.9 16.2 95 0.5 W 6 7 3 4 1009.0 1008.7 0.0
16/02:20am 17.0 18.2 16.0 94 0.6 WNW 4 7 2 4 1009.2 1008.9 0.0
16/02:10am 17.4 19.0 16.8 96 0.4 N 4 7 2 4 1009.2 1008.9 0.0
16/02:00am 17.6 18.9 17.0 96 0.4 N 6 7 3 4 1009.2 1008.9 0.0
16/01:30am 18.0 20.2 16.5 91 0.9 CALM 0 0 0 0 1009.6 1009.3 0.0
16/01:00am 18.7 21.1 16.9 89 1.1 CALM 0 0 0 0 1010.0 1009.7 0.0
16/12:30am 19.1 21.4 16.7 86 1.4 CALM 0 7 0 4 1010.4 1010.1 0.0
16/12:00am 19.5 21.9 17.1 86 1.5 CALM 0 0 0 0 1010.5 1010.2 0.0
 
Date/Time
EDT
Temp
°C
App
Temp
°C
Dew
Point
°C
Rel
Hum
%
Delta-T
°C
Wind Press
QNH
hPa
Press
MSL
hPa
Rain since
9am
mm
Dir  Spd
km/h
Gust
km/h
Spd
kts
Gust
kts
15/11:30pm 19.8 22.1 16.8 83 1.8 CALM 0 0 0 0 1010.6 1010.3 0.0
15/11:00pm 20.6 23.1 17.2 81 2.1 CALM 0 0 0 0 1010.7 1010.4 0.0
15/10:30pm 21.0 23.2 16.4 75 2.8 CALM 0 0 0 0 1010.8 1010.5 0.0
15/10:00pm 22.5 25.2 17.8 75 2.9 CALM 0 0 0 0 1010.6 1010.3 0.0
15/09:30pm 22.8 25.5 17.7 73 3.2 CALM 0 2 0 1 1010.6 1010.3 0.0
15/09:00pm 23.1 24.3 17.3 70 3.6 ENE 7 11 4 6 1010.3 1010.0 0.0
15/08:30pm 23.8 25.0 17.3 67 4.0 E 7 11 4 6 1010.1 1009.8 0.0
15/08:00pm 24.5 25.3 17.2 63 4.5 ENE 9 13 5 7 1009.6 1009.3 0.0
15/07:30pm 25.7 25.7 17.1 59 5.4 E 13 19 7 10 1009.3 1009.0 0.0
15/07:00pm 27.0 26.4 16.6 53 6.5 ENE 15 20 8 11 1008.9 1008.6 0.0
15/06:30pm 28.0 27.5 16.9 51 7.0 ENE 15 20 8 11 1008.6 1008.3 0.0
15/06:00pm 28.5 26.9 16.4 48 7.6 NE 20 32 11 17 1008.1 1007.8 0.0
15/05:30pm 29.3 26.4 16.1 44 8.2 NE 26 33 14 18 1007.8 1007.5 0.0
15/05:00pm 30.2 27.2 15.9 42 8.9 NE 26 39 14 21 1007.8 1007.5 0.0
15/04:30pm 31.5 27.8 15.0 36 10.2 ENE 28 39 15 21 1008.1 1007.8 0.0
15/04:00pm 31.9 28.5 13.6 32 11.1 ENE 24 35 13 19 1008.4 1008.1 0.0
15/03:30pm 32.8 30.2 10.8 26 12.8 NNE 15 32 8 17 1008.8 1008.5 0.0
15/03:00pm 32.6 29.8 11.2 27 12.5 ENE 17 26 9 14 1009.4 1009.1 0.0
15/02:30pm 31.4 28.2 11.2 29 11.7 N 19 26 10 14 1010.2 1009.9 0.0
15/02:00pm 30.2 28.1 11.2 31 11.0 N 13 20 7 11 1010.8 1010.5 0.0
15/01:30pm 29.5 27.4 11.1 32 10.6 ENE 13 26 7 14 1011.4 1011.1 0.0
15/01:00pm 29.5 28.3 11.5 33 10.4 NE 9 19 5 10 1012.2 1011.9 0.0
15/12:30pm 28.1 26.1 11.6 36 9.5 NNE 13 24 7 13 1013.0 1012.7 0.0

Other Formats:

Comma delimited format used in spreadsheet applications
http://www.bom.gov.au/fwo/IDN60801/IDN60801.94755.axf

JavaScript Object Notation format (JSON) in row-major order
http://www.bom.gov.au/fwo/IDN60801/IDN60801.94755.json